createdAt,value
2019-04-26T00:00:52.088Z,18.27
2019-04-26T00:01:51.992Z,18.27
2019-04-26T00:02:51.932Z,18.34
2019-04-26T00:03:51.881Z,18.27
2019-04-26T00:04:51.827Z,18.27
2019-04-26T00:05:51.779Z,18.27
2019-04-26T00:06:51.725Z,18.24
2019-04-26T00:07:51.676Z,18.31
2019-04-26T00:08:51.621Z,18.29
2019-04-26T00:09:51.573Z,18.31
2019-04-26T00:10:51.524Z,18.28
2019-04-26T00:11:51.466Z,18.25
2019-04-26T00:12:51.415Z,18.28
2019-04-26T00:13:51.367Z,18.33
2019-04-26T00:14:51.311Z,18.21
2019-04-26T00:15:51.274Z,18.25
2019-04-26T00:16:51.208Z,18.22
2019-04-26T00:17:51.156Z,18.17
2019-04-26T00:18:51.104Z,18.22
2019-04-26T00:19:51.052Z,18.12
2019-04-26T00:20:51.001Z,18.22
2019-04-26T00:21:50.949Z,18.13
2019-04-26T00:22:50.897Z,18.15
2019-04-26T00:23:50.846Z,18.18
2019-04-26T00:24:50.794Z,18.13
2019-04-26T00:25:50.742Z,18.10
2019-04-26T00:26:50.691Z,18.17
2019-04-26T00:27:50.641Z,18.07
2019-04-26T00:28:50.586Z,18.13
2019-04-26T00:29:50.535Z,18.13
2019-04-26T00:30:50.566Z,18.15
2019-04-26T00:31:50.431Z,18.13
2019-04-26T00:32:50.379Z,18.12
2019-04-26T00:33:50.328Z,18.12
2019-04-26T00:34:50.283Z,18.13
2019-04-26T00:35:50.224Z,18.13
2019-04-26T00:36:50.172Z,18.10
2019-04-26T00:37:50.121Z,18.07
2019-04-26T00:38:50.072Z,18.00
2019-04-26T00:39:50.016Z,18.09
2019-04-26T00:40:49.965Z,18.00
2019-04-26T00:41:49.913Z,18.00
2019-04-26T00:42:49.904Z,18.09
2019-04-26T00:43:49.814Z,18.06
2019-04-26T00:44:49.758Z,18.00
2019-04-26T00:45:49.706Z,18.03
2019-04-26T00:46:49.655Z,18.02
2019-04-26T00:47:49.603Z,17.92
2019-04-26T00:48:49.551Z,17.89
2019-04-26T00:49:49.499Z,17.97
2019-04-26T00:50:49.447Z,17.88
2019-04-26T00:51:49.394Z,17.89
2019-04-26T00:52:49.413Z,17.91
2019-04-26T00:53:49.293Z,17.91
2019-04-26T00:54:49.240Z,17.84
2019-04-26T00:55:49.187Z,17.99
2019-04-26T00:56:49.140Z,17.87
2019-04-26T00:57:49.083Z,17.91
2019-04-26T00:58:49.031Z,17.88
2019-04-26T00:59:48.981Z,17.88
2019-04-26T01:00:48.927Z,17.91
2019-04-26T01:01:48.876Z,17.88
2019-04-26T01:02:48.823Z,17.92
2019-04-26T01:03:48.772Z,17.88
2019-04-26T01:04:48.719Z,17.84
2019-04-26T01:05:59.516Z,17.81
2019-04-26T01:06:48.618Z,17.88
2019-04-26T01:07:48.564Z,17.91
2019-04-26T01:08:51.137Z,17.88
2019-04-26T01:09:48.461Z,17.92
2019-04-26T01:10:48.419Z,17.84
2019-04-26T01:11:48.355Z,17.91
2019-04-26T01:12:48.304Z,17.85
2019-04-26T01:13:48.252Z,17.92
2019-04-26T01:14:48.200Z,17.79
2019-04-26T01:15:48.147Z,17.79
2019-04-26T01:16:48.097Z,17.81
2019-04-26T01:17:48.044Z,17.79
2019-04-26T01:18:47.995Z,17.85
2019-04-26T01:19:47.938Z,17.82
2019-04-26T01:20:47.887Z,17.78
2019-04-26T01:21:47.834Z,17.82
2019-04-26T01:22:47.782Z,17.85
2019-04-26T01:23:47.730Z,17.81
2019-04-26T01:24:47.680Z,17.79
2019-04-26T01:25:47.626Z,17.74
2019-04-26T01:26:47.577Z,17.78
2019-04-26T01:27:47.526Z,17.84
2019-04-26T01:28:47.470Z,17.78
2019-04-26T01:29:47.419Z,17.82
2019-04-26T01:30:47.367Z,17.82
2019-04-26T01:31:47.315Z,17.74
2019-04-26T01:32:47.262Z,17.73
2019-04-26T01:33:47.210Z,17.71
2019-04-26T01:34:47.157Z,17.70
2019-04-26T01:35:47.105Z,17.71
2019-04-26T01:36:47.054Z,17.71
2019-04-26T01:37:47.000Z,17.76
2019-04-26T01:38:46.956Z,17.78
2019-04-26T01:39:46.896Z,17.69
2019-04-26T01:40:46.844Z,17.64
2019-04-26T01:41:46.793Z,17.74
2019-04-26T01:42:46.740Z,17.64
2019-04-26T01:43:46.687Z,17.57
2019-04-26T01:44:46.635Z,17.67
2019-04-26T01:45:46.583Z,17.76
2019-04-26T01:46:46.532Z,17.63
2019-04-26T01:47:46.478Z,17.57
2019-04-26T01:48:46.426Z,17.59
2019-04-26T01:49:46.376Z,17.57
2019-04-26T01:50:46.322Z,17.62
2019-04-26T01:51:46.273Z,17.55
2019-04-26T01:52:46.219Z,17.48
2019-04-26T01:53:46.166Z,17.55
2019-04-26T01:54:46.113Z,17.50
2019-04-26T01:55:46.071Z,17.44
2019-04-26T01:56:46.009Z,17.54
2019-04-26T01:57:45.957Z,17.55
2019-04-26T01:58:45.904Z,17.57
2019-04-26T01:59:45.856Z,17.55
2019-04-26T02:00:45.799Z,17.47
2019-04-26T02:01:45.748Z,17.53
2019-04-26T02:02:45.696Z,17.46
2019-04-26T02:03:45.643Z,17.47
2019-04-26T02:04:45.590Z,17.50
2019-04-26T02:05:45.540Z,17.48
2019-04-26T02:06:45.489Z,17.47
2019-04-26T02:07:45.433Z,17.51
2019-04-26T02:08:45.380Z,17.48
2019-04-26T02:09:45.328Z,17.47
2019-04-26T02:10:45.276Z,17.43
2019-04-26T02:11:45.223Z,17.46
2019-04-26T02:12:45.180Z,17.32
2019-04-26T02:13:45.121Z,17.50
2019-04-26T02:14:45.068Z,17.36
2019-04-26T02:15:45.013Z,17.32
2019-04-26T02:16:44.965Z,17.33
2019-04-26T02:17:44.910Z,17.43
2019-04-26T02:18:44.858Z,17.36
2019-04-26T02:19:44.805Z,17.36
2019-04-26T02:20:44.752Z,17.35
2019-04-26T02:21:44.699Z,17.35
2019-04-26T02:22:44.648Z,17.40
2019-04-26T02:23:44.594Z,17.33
2019-04-26T02:24:44.542Z,17.40
2019-04-26T02:25:44.491Z,17.35
2019-04-26T02:26:44.439Z,17.35
2019-04-26T02:27:44.391Z,17.36
2019-04-26T02:28:44.332Z,17.35
2019-04-26T02:29:44.281Z,17.35
2019-04-26T02:30:44.229Z,17.28
2019-04-26T02:31:44.175Z,17.30
2019-04-26T02:32:44.127Z,17.30
2019-04-26T02:33:44.071Z,17.30
2019-04-26T02:34:44.020Z,17.23
2019-04-26T02:35:43.970Z,17.33
2019-04-26T02:36:57.377Z,17.26
2019-04-26T02:37:43.864Z,17.25
2019-04-26T02:38:43.809Z,17.23
2019-04-26T02:39:43.758Z,17.23
2019-04-26T02:40:43.707Z,17.18
2019-04-26T02:41:43.651Z,17.25
2019-04-26T02:42:43.598Z,17.18
2019-04-26T02:43:43.546Z,17.26
2019-04-26T02:44:43.495Z,17.22
2019-04-26T02:45:43.444Z,17.26
2019-04-26T02:46:43.392Z,17.23
2019-04-26T02:47:43.343Z,17.20
2019-04-26T02:48:43.282Z,17.17
2019-04-26T02:49:43.230Z,17.22
2019-04-26T02:50:43.177Z,17.13
2019-04-26T02:51:43.284Z,17.14
2019-04-26T02:52:43.073Z,17.15
2019-04-26T02:53:43.023Z,17.11
2019-04-26T02:54:42.967Z,17.14
2019-04-26T02:55:42.914Z,17.10
2019-04-26T02:56:43.768Z,17.10
2019-04-26T02:57:42.813Z,17.18
2019-04-26T02:58:42.757Z,17.14
2019-04-26T02:59:42.713Z,17.07
2019-04-26T03:00:42.652Z,17.14
2019-04-26T03:01:42.603Z,17.08
2019-04-26T03:02:42.547Z,17.08
2019-04-26T03:03:42.494Z,17.11
2019-04-26T03:04:42.444Z,17.03
2019-04-26T03:05:42.390Z,17.04
2019-04-26T03:06:42.866Z,17.10
2019-04-26T03:07:42.776Z,17.00
2019-04-26T03:08:42.761Z,17.00
2019-04-26T03:09:43.156Z,17.00
2019-04-26T03:10:43.495Z,16.96
2019-04-26T03:11:43.342Z,16.98
2019-04-26T03:12:43.162Z,16.98
2019-04-26T03:13:43.543Z,16.96
2019-04-26T03:14:42.147Z,16.95
2019-04-26T03:15:42.678Z,16.99
2019-04-26T03:16:42.967Z,16.93
2019-04-26T03:17:42.951Z,17.06
2019-04-26T03:18:43.063Z,16.98
2019-04-26T03:19:43.042Z,16.95
2019-04-26T03:20:42.259Z,16.90
2019-04-26T03:21:41.546Z,16.99
2019-04-26T03:22:42.717Z,16.89
2019-04-26T03:23:56.999Z,16.88
2019-04-26T03:24:42.583Z,16.99
2019-04-26T03:25:42.252Z,16.99
2019-04-26T03:26:43.138Z,16.95
2019-04-26T03:27:43.078Z,16.81
2019-04-26T03:28:43.476Z,16.95
2019-04-26T03:29:42.028Z,16.92
2019-04-26T03:30:48.725Z,16.90
2019-04-26T03:31:49.647Z,16.95
2019-04-26T03:32:50.339Z,16.88
2019-04-26T03:33:52.157Z,16.86
2019-04-26T03:34:50.760Z,16.88
2019-04-26T03:35:54.424Z,16.88
2019-04-26T03:36:42.475Z,16.83
2019-04-26T03:37:42.660Z,16.90
2019-04-26T03:38:41.892Z,16.80
2019-04-26T03:39:42.177Z,16.88
2019-04-26T03:40:42.438Z,16.73
2019-04-26T03:41:42.169Z,16.77
2019-04-26T03:42:42.210Z,16.74
2019-04-26T03:43:41.221Z,16.88
2019-04-26T03:44:41.123Z,16.86
2019-04-26T03:45:42.423Z,16.80
2019-04-26T03:46:41.833Z,16.88
2019-04-26T03:47:42.663Z,16.75
2019-04-26T03:48:41.702Z,16.78
2019-04-26T03:49:41.527Z,16.75
2019-04-26T03:50:41.044Z,16.83
2019-04-26T03:51:41.214Z,16.80
2019-04-26T03:52:41.555Z,16.78
2019-04-26T03:53:41.821Z,16.75
2019-04-26T03:54:40.993Z,16.80
2019-04-26T03:55:40.298Z,16.75
2019-04-26T03:56:41.465Z,16.70
2019-04-26T03:57:40.740Z,16.65
2019-04-26T03:58:40.473Z,16.77
2019-04-26T03:59:40.730Z,16.74
2019-04-26T04:00:40.850Z,16.74
2019-04-26T04:01:40.822Z,16.73
2019-04-26T04:02:40.909Z,16.70
2019-04-26T04:03:41.636Z,16.68
2019-04-26T04:04:41.037Z,16.71
2019-04-26T04:05:40.105Z,16.73
2019-04-26T04:06:56.771Z,16.71
2019-04-26T04:07:45.527Z,16.68
2019-04-26T04:08:40.750Z,16.74
2019-04-26T04:09:39.802Z,16.62
2019-04-26T04:10:40.009Z,16.68
2019-04-26T04:11:40.839Z,16.67
2019-04-26T04:12:41.433Z,16.68
2019-04-26T04:13:40.735Z,16.68
2019-04-26T04:14:40.513Z,16.67
2019-04-26T04:15:40.070Z,16.67
2019-04-26T04:16:40.634Z,16.60
2019-04-26T04:17:39.645Z,16.67
2019-04-26T04:18:40.167Z,16.67
2019-04-26T04:19:40.008Z,16.59
2019-04-26T04:20:40.185Z,16.65
2019-04-26T04:21:39.394Z,16.68
2019-04-26T04:22:40.861Z,16.65
2019-04-26T04:23:39.760Z,16.67
2019-04-26T04:24:39.777Z,16.70
2019-04-26T04:25:41.173Z,16.55
2019-04-26T04:26:39.725Z,16.60
2019-04-26T04:27:39.436Z,16.71
2019-04-26T04:28:38.634Z,16.59
2019-04-26T04:29:46.076Z,16.56
2019-04-26T04:30:38.637Z,16.59
2019-04-26T04:31:38.390Z,16.56
2019-04-26T04:32:39.678Z,16.65
2019-04-26T04:33:37.741Z,16.56
2019-04-26T04:34:37.685Z,16.58
2019-04-26T04:35:37.630Z,16.59
2019-04-26T04:36:37.576Z,16.56
2019-04-26T04:37:56.322Z,16.60
2019-04-26T04:38:37.470Z,16.60
2019-04-26T04:39:37.416Z,16.59
2019-04-26T04:40:37.383Z,16.62
2019-04-26T04:41:37.316Z,16.56
2019-04-26T04:42:37.326Z,16.56
2019-04-26T04:43:37.204Z,16.53
2019-04-26T04:44:37.150Z,16.62
2019-04-26T04:45:37.116Z,16.58
2019-04-26T04:46:37.044Z,16.52
2019-04-26T04:47:36.991Z,16.53
2019-04-26T04:48:36.939Z,16.52
2019-04-26T04:49:36.884Z,16.55
2019-04-26T04:50:36.832Z,16.59
2019-04-26T04:51:36.779Z,16.58
2019-04-26T04:52:36.725Z,16.49
2019-04-26T04:53:36.672Z,16.50
2019-04-26T04:54:36.618Z,16.58
2019-04-26T04:55:36.571Z,16.53
2019-04-26T04:56:36.514Z,16.52
2019-04-26T04:57:36.459Z,16.49
2019-04-26T04:58:36.407Z,16.53
2019-04-26T04:59:36.352Z,16.45
2019-04-26T05:00:36.300Z,16.48
2019-04-26T05:01:36.247Z,16.49
2019-04-26T05:02:36.227Z,16.53
2019-04-26T05:03:36.190Z,16.42
2019-04-26T05:04:36.098Z,16.45
2019-04-26T05:05:36.035Z,16.50
2019-04-26T05:06:35.980Z,16.52
2019-04-26T05:07:35.931Z,16.48
2019-04-26T05:08:35.873Z,16.45
2019-04-26T05:09:35.821Z,16.50
2019-04-26T05:10:35.768Z,16.45
2019-04-26T05:11:35.715Z,16.45
2019-04-26T05:12:35.663Z,16.48
2019-04-26T05:13:35.609Z,16.48
2019-04-26T05:14:35.555Z,16.48
2019-04-26T05:15:35.503Z,16.45
2019-04-26T05:16:35.448Z,16.42
2019-04-26T05:17:35.395Z,16.42
2019-04-26T05:18:35.342Z,16.50
2019-04-26T05:19:35.288Z,16.44
2019-04-26T05:20:35.234Z,16.41
2019-04-26T05:21:35.181Z,16.40
2019-04-26T05:22:35.130Z,16.42
2019-04-26T05:23:35.076Z,16.48
2019-04-26T05:24:35.023Z,16.48
2019-04-26T05:25:34.969Z,16.50
2019-04-26T05:26:34.916Z,16.53
2019-04-26T05:27:34.870Z,16.44
2019-04-26T05:28:34.808Z,16.40
2019-04-26T05:29:34.758Z,16.44
2019-04-26T05:30:34.703Z,16.50
2019-04-26T05:31:34.649Z,16.45
2019-04-26T05:32:34.595Z,16.45
2019-04-26T05:33:34.543Z,16.45
2019-04-26T05:34:34.495Z,16.50
2019-04-26T05:35:34.440Z,16.49
2019-04-26T05:36:34.383Z,16.42
2019-04-26T05:37:37.034Z,16.38
2019-04-26T05:38:34.277Z,16.49
2019-04-26T05:39:34.222Z,16.50
2019-04-26T05:40:34.172Z,16.48
2019-04-26T05:41:34.116Z,16.48
2019-04-26T05:42:34.063Z,16.44
2019-04-26T05:43:34.012Z,16.48
2019-04-26T05:44:33.958Z,16.48
2019-04-26T05:45:33.904Z,16.40
2019-04-26T05:46:33.850Z,16.35
2019-04-26T05:47:33.796Z,16.40
2019-04-26T05:48:33.743Z,16.45
2019-04-26T05:49:33.690Z,16.41
2019-04-26T05:50:33.639Z,16.44
2019-04-26T05:51:33.584Z,16.40
2019-04-26T05:52:33.530Z,16.44
2019-04-26T05:53:33.476Z,16.40
2019-04-26T05:54:33.424Z,16.48
2019-04-26T05:55:33.369Z,16.48
2019-04-26T05:56:33.317Z,16.42
2019-04-26T05:57:33.268Z,16.40
2019-04-26T05:58:33.213Z,16.42
2019-04-26T05:59:33.159Z,16.45
2019-04-26T06:00:33.107Z,16.42
2019-04-26T06:01:33.051Z,16.41
2019-04-26T06:02:32.998Z,16.42
2019-04-26T06:03:32.944Z,16.35
2019-04-26T06:04:32.890Z,16.42
2019-04-26T06:05:32.837Z,16.41
2019-04-26T06:06:32.785Z,16.33
2019-04-26T06:07:32.730Z,16.30
2019-04-26T06:08:32.677Z,16.31
2019-04-26T06:09:32.627Z,16.40
2019-04-26T06:10:32.579Z,16.33
2019-04-26T06:11:32.516Z,16.27
2019-04-26T06:12:32.463Z,16.37
2019-04-26T06:13:32.410Z,16.31
2019-04-26T06:14:32.357Z,16.34
2019-04-26T06:15:32.303Z,16.41
2019-04-26T06:16:32.249Z,16.30
2019-04-26T06:17:33.653Z,16.31
2019-04-26T06:18:32.143Z,16.31
2019-04-26T06:19:32.089Z,16.31
2019-04-26T06:20:32.036Z,16.30
2019-04-26T06:21:31.983Z,16.33
2019-04-26T06:22:31.930Z,16.37
2019-04-26T06:23:31.875Z,16.34
2019-04-26T06:24:31.823Z,16.33
2019-04-26T06:25:31.775Z,16.37
2019-04-26T06:26:31.719Z,16.34
2019-04-26T06:27:31.662Z,16.34
2019-04-26T06:28:31.611Z,16.37
2019-04-26T06:29:32.799Z,16.33
2019-04-26T06:30:31.505Z,16.33
2019-04-26T06:31:31.450Z,16.31
2019-04-26T06:32:31.482Z,16.27
2019-04-26T06:33:31.342Z,16.40
2019-04-26T06:34:31.291Z,16.33
2019-04-26T06:35:31.234Z,16.37
2019-04-26T06:36:31.181Z,16.30
2019-04-26T06:37:31.128Z,16.37
2019-04-26T06:38:43.069Z,16.34
2019-04-26T06:39:31.021Z,16.37
2019-04-26T06:40:41.672Z,16.30
2019-04-26T06:41:30.915Z,16.30
2019-04-26T06:42:30.861Z,16.34
2019-04-26T06:43:30.807Z,16.26
2019-04-26T06:44:30.754Z,16.35
2019-04-26T06:45:30.701Z,16.31
2019-04-26T06:46:30.653Z,16.34
2019-04-26T06:47:30.595Z,16.30
2019-04-26T06:48:30.540Z,16.27
2019-04-26T06:49:30.487Z,16.35
2019-04-26T06:50:30.434Z,16.35
2019-04-26T06:51:30.383Z,16.30
2019-04-26T06:52:30.326Z,16.26
2019-04-26T06:53:30.274Z,16.35
2019-04-26T06:54:30.220Z,16.27
2019-04-26T06:55:30.165Z,16.34
2019-04-26T06:56:30.111Z,16.30
2019-04-26T06:57:30.061Z,16.27
2019-04-26T06:58:30.007Z,16.26
2019-04-26T06:59:36.205Z,16.35
2019-04-26T07:00:29.899Z,16.33
2019-04-26T07:01:29.846Z,16.27
2019-04-26T07:02:29.794Z,16.37
2019-04-26T07:03:29.741Z,16.30
2019-04-26T07:04:29.684Z,16.34
2019-04-26T07:05:29.631Z,16.30
2019-04-26T07:06:35.124Z,16.33
2019-04-26T07:07:29.524Z,16.35
2019-04-26T07:08:29.471Z,16.26
2019-04-26T07:09:29.424Z,16.33
2019-04-26T07:10:29.363Z,16.33
2019-04-26T07:11:29.309Z,16.25
2019-04-26T07:12:29.262Z,16.31
2019-04-26T07:13:29.203Z,16.30
2019-04-26T07:14:29.151Z,16.15
2019-04-26T07:15:29.143Z,16.23
2019-04-26T07:16:29.042Z,16.23
2019-04-26T07:17:28.989Z,16.12
2019-04-26T07:18:28.936Z,16.14
2019-04-26T07:19:28.881Z,16.22
2019-04-26T07:20:28.828Z,16.26
2019-04-26T07:21:28.775Z,16.14
2019-04-26T07:22:35.164Z,16.22
2019-04-26T07:23:28.667Z,16.18
2019-04-26T07:24:28.615Z,16.25
2019-04-26T07:25:28.560Z,16.16
2019-04-26T07:26:28.507Z,16.20
2019-04-26T07:27:28.455Z,16.18
2019-04-26T07:28:28.456Z,16.23
2019-04-26T07:29:28.347Z,16.23
2019-04-26T07:30:28.356Z,16.18
2019-04-26T07:31:28.240Z,16.18
2019-04-26T07:32:28.186Z,16.16
2019-04-26T07:33:28.134Z,16.20
2019-04-26T07:34:28.079Z,16.20
2019-04-26T07:35:28.025Z,16.18
2019-04-26T07:36:27.971Z,16.20
2019-04-26T07:37:27.918Z,16.25
2019-04-26T07:38:27.864Z,16.14
2019-04-26T07:39:27.810Z,16.20
2019-04-26T07:40:27.758Z,16.26
2019-04-26T07:41:27.711Z,16.18
2019-04-26T07:42:27.653Z,16.16
2019-04-26T07:43:27.597Z,16.16
2019-04-26T07:44:27.543Z,16.18
2019-04-26T07:45:27.491Z,16.16
2019-04-26T07:46:27.438Z,16.12
2019-04-26T07:47:27.383Z,16.12
2019-04-26T07:48:27.328Z,16.14
2019-04-26T07:49:27.275Z,16.11
2019-04-26T07:50:27.225Z,16.11
2019-04-26T07:51:27.170Z,16.14
2019-04-26T07:52:27.114Z,16.14
2019-04-26T07:53:27.060Z,16.12
2019-04-26T07:54:27.008Z,16.07
2019-04-26T07:55:26.953Z,16.15
2019-04-26T07:56:26.900Z,16.09
2019-04-26T07:57:26.846Z,16.14
2019-04-26T07:58:26.794Z,16.09
2019-04-26T07:59:26.740Z,16.15
2019-04-26T08:00:26.685Z,16.09
2019-04-26T08:01:26.632Z,16.09
2019-04-26T08:02:26.580Z,16.07
2019-04-26T08:03:26.525Z,16.14
2019-04-26T08:04:29.552Z,16.07
2019-04-26T08:05:26.418Z,16.16
2019-04-26T08:06:26.364Z,16.09
2019-04-26T08:07:26.309Z,16.12
2019-04-26T08:08:26.258Z,16.03
2019-04-26T08:09:27.539Z,16.07
2019-04-26T08:10:26.149Z,16.12
2019-04-26T08:11:26.096Z,16.01
2019-04-26T08:12:26.042Z,16.11
2019-04-26T08:13:25.988Z,16.03
2019-04-26T08:14:25.935Z,16.09
2019-04-26T08:15:25.882Z,16.09
2019-04-26T08:16:25.829Z,16.09
2019-04-26T08:17:25.773Z,16.07
2019-04-26T08:18:25.723Z,16.01
2019-04-26T08:19:25.667Z,16.06
2019-04-26T08:20:28.278Z,16.03
2019-04-26T08:21:25.561Z,16.12
2019-04-26T08:22:28.622Z,16.12
2019-04-26T08:23:38.501Z,16.06
2019-04-26T08:24:27.965Z,16.11
2019-04-26T08:25:25.348Z,16.09
2019-04-26T08:26:26.366Z,16.03
2019-04-26T08:27:25.236Z,16.04
2019-04-26T08:28:25.182Z,16.03
2019-04-26T08:29:25.133Z,16.07
2019-04-26T08:30:25.078Z,16.07
2019-04-26T08:31:26.253Z,15.99
2019-04-26T08:32:28.210Z,16.09
2019-04-26T08:33:24.914Z,16.11
2019-04-26T08:34:28.942Z,16.11
2019-04-26T08:35:24.807Z,16.07
2019-04-26T08:36:27.188Z,16.09
2019-04-26T08:37:24.699Z,16.04
2019-04-26T08:38:24.647Z,16.00
2019-04-26T08:39:32.549Z,16.03
2019-04-26T08:40:30.732Z,16.09
2019-04-26T08:41:24.484Z,16.09
2019-04-26T08:42:25.136Z,16.06
2019-04-26T08:43:27.396Z,16.03
2019-04-26T08:44:24.327Z,16.01
2019-04-26T08:45:24.269Z,16.11
2019-04-26T08:46:24.229Z,16.07
2019-04-26T08:47:26.407Z,16.07
2019-04-26T08:48:27.618Z,16.01
2019-04-26T08:49:24.054Z,16.03
2019-04-26T08:50:24.001Z,16.12
2019-04-26T08:51:23.980Z,16.03
2019-04-26T08:52:23.894Z,16.00
2019-04-26T08:53:23.840Z,16.12
2019-04-26T08:54:23.786Z,16.07
2019-04-26T08:55:23.731Z,16.11
2019-04-26T08:56:23.681Z,16.09
2019-04-26T08:57:23.624Z,16.09
2019-04-26T08:58:23.571Z,16.07
2019-04-26T08:59:23.523Z,16.00
2019-04-26T09:00:23.468Z,16.14
2019-04-26T09:01:23.411Z,16.06
2019-04-26T09:02:23.409Z,15.96
2019-04-26T09:03:23.301Z,15.96
2019-04-26T09:04:23.251Z,16.06
2019-04-26T09:05:23.199Z,15.97
2019-04-26T09:06:23.144Z,16.03
2019-04-26T09:07:23.099Z,15.93
2019-04-26T09:08:23.034Z,15.94
2019-04-26T09:09:22.980Z,15.96
2019-04-26T09:10:22.928Z,15.93
2019-04-26T09:11:29.954Z,16.07
2019-04-26T09:12:23.640Z,16.04
2019-04-26T09:13:22.765Z,15.96
2019-04-26T09:14:22.711Z,16.14
2019-04-26T09:15:22.657Z,15.97
2019-04-26T09:16:22.602Z,16.06
2019-04-26T09:17:22.549Z,15.93
2019-04-26T09:18:22.497Z,16.07
2019-04-26T09:19:22.443Z,15.97
2019-04-26T09:20:28.611Z,16.00
2019-04-26T09:21:22.337Z,16.01
2019-04-26T09:22:22.765Z,15.96
2019-04-26T09:23:22.227Z,15.99
2019-04-26T09:24:25.108Z,15.99
2019-04-26T09:25:22.775Z,15.96
2019-04-26T09:26:22.119Z,16.00
2019-04-26T09:27:22.552Z,15.96
2019-04-26T09:28:21.961Z,15.97
2019-04-26T09:29:21.903Z,16.00
2019-04-26T09:30:33.273Z,15.93
2019-04-26T09:31:21.796Z,15.96
2019-04-26T09:32:24.192Z,16.07
2019-04-26T09:33:21.732Z,15.93
2019-04-26T09:34:21.635Z,15.97
2019-04-26T09:35:21.580Z,15.93
2019-04-26T09:36:21.536Z,15.97
2019-04-26T09:37:21.475Z,15.99
2019-04-26T09:38:21.421Z,15.99
2019-04-26T09:39:21.366Z,15.99
2019-04-26T09:40:22.705Z,15.97
2019-04-26T09:41:21.259Z,15.96
2019-04-26T09:42:21.206Z,15.97
2019-04-26T09:43:21.151Z,15.96
2019-04-26T09:44:21.096Z,15.94
2019-04-26T09:45:21.049Z,15.93
2019-04-26T09:46:20.993Z,15.99
2019-04-26T09:47:20.935Z,15.93
2019-04-26T09:48:20.883Z,15.94
2019-04-26T09:49:20.833Z,15.88
2019-04-26T09:50:20.774Z,15.88
2019-04-26T09:51:20.719Z,15.94
2019-04-26T09:52:20.665Z,15.97
2019-04-26T09:53:20.621Z,15.93
2019-04-26T09:54:20.562Z,15.89
2019-04-26T09:55:20.505Z,15.86
2019-04-26T09:56:20.451Z,15.89
2019-04-26T09:57:20.398Z,15.88
2019-04-26T09:58:20.343Z,15.88
2019-04-26T09:59:20.288Z,15.94
2019-04-26T10:00:20.235Z,15.85
2019-04-26T10:01:24.190Z,15.86
2019-04-26T10:02:20.129Z,15.86
2019-04-26T10:03:20.073Z,15.85
2019-04-26T10:04:20.023Z,15.86
2019-04-26T10:05:22.257Z,15.93
2019-04-26T10:06:19.914Z,15.85
2019-04-26T10:07:19.858Z,15.84
2019-04-26T10:08:19.805Z,15.88
2019-04-26T10:09:21.157Z,15.85
2019-04-26T10:10:22.957Z,15.93
2019-04-26T10:11:19.643Z,15.86
2019-04-26T10:12:19.588Z,15.92
2019-04-26T10:13:19.535Z,15.88
2019-04-26T10:14:19.482Z,15.88
2019-04-26T10:15:22.393Z,15.89
2019-04-26T10:16:19.372Z,15.88
2019-04-26T10:17:19.320Z,15.89
2019-04-26T10:18:20.458Z,15.85
2019-04-26T10:19:19.212Z,15.85
2019-04-26T10:20:19.158Z,15.85
2019-04-26T10:21:19.104Z,15.86
2019-04-26T10:22:19.050Z,15.89
2019-04-26T10:23:18.996Z,15.86
2019-04-26T10:24:18.948Z,15.89
2019-04-26T10:25:18.890Z,15.86
2019-04-26T10:26:18.836Z,15.79
2019-04-26T10:27:18.780Z,15.86
2019-04-26T10:28:18.727Z,15.86
2019-04-26T10:29:21.655Z,15.89
2019-04-26T10:30:18.619Z,15.88
2019-04-26T10:31:18.712Z,15.81
2019-04-26T10:32:21.884Z,15.89
2019-04-26T10:33:18.468Z,15.96
2019-04-26T10:34:18.403Z,15.86
2019-04-26T10:35:21.791Z,15.86
2019-04-26T10:36:18.295Z,15.86
2019-04-26T10:37:18.242Z,15.86
2019-04-26T10:38:19.385Z,15.86
2019-04-26T10:39:18.135Z,15.89
2019-04-26T10:40:18.080Z,15.88
2019-04-26T10:41:18.026Z,15.85
2019-04-26T10:42:17.972Z,15.85
2019-04-26T10:43:17.923Z,15.92
2019-04-26T10:44:17.864Z,15.88
2019-04-26T10:45:17.811Z,15.85
2019-04-26T10:46:17.757Z,15.93
2019-04-26T10:47:17.702Z,15.78
2019-04-26T10:48:17.650Z,15.79
2019-04-26T10:49:20.403Z,15.79
2019-04-26T10:50:17.543Z,15.81
2019-04-26T10:51:17.485Z,15.92
2019-04-26T10:52:17.433Z,15.89
2019-04-26T10:53:17.383Z,15.78
2019-04-26T10:54:17.324Z,15.86
2019-04-26T10:55:17.561Z,15.82
2019-04-26T10:56:20.193Z,15.79
2019-04-26T10:57:17.163Z,15.81
2019-04-26T10:58:17.111Z,15.81
2019-04-26T10:59:17.054Z,15.92
2019-04-26T11:00:18.087Z,15.82
2019-04-26T11:01:17.006Z,15.88
2019-04-26T11:02:16.894Z,15.82
2019-04-26T11:03:16.842Z,15.89
2019-04-26T11:04:16.784Z,15.79
2019-04-26T11:05:18.403Z,15.92
2019-04-26T11:06:16.683Z,15.84
2019-04-26T11:07:16.622Z,15.89
2019-04-26T11:08:16.572Z,15.88
2019-04-26T11:09:16.521Z,15.86
2019-04-26T11:10:16.462Z,15.89
2019-04-26T11:11:16.407Z,15.81
2019-04-26T11:12:16.353Z,15.81
2019-04-26T11:13:16.299Z,15.86
2019-04-26T11:14:18.262Z,15.89
2019-04-26T11:15:16.191Z,15.78
2019-04-26T11:16:16.140Z,15.85
2019-04-26T11:17:17.725Z,15.84
2019-04-26T11:18:19.866Z,15.84
2019-04-26T11:19:15.976Z,15.81
2019-04-26T11:20:15.922Z,15.86
2019-04-26T11:21:16.271Z,15.81
2019-04-26T11:22:28.375Z,15.84
2019-04-26T11:23:15.760Z,15.89
2019-04-26T11:24:19.557Z,15.88
2019-04-26T11:25:15.653Z,15.78
2019-04-26T11:26:16.687Z,15.82
2019-04-26T11:27:15.548Z,15.85
2019-04-26T11:28:17.307Z,15.84
2019-04-26T11:29:15.442Z,15.84
2019-04-26T11:30:20.681Z,15.82
2019-04-26T11:31:15.328Z,15.86
2019-04-26T11:32:15.275Z,15.84
2019-04-26T11:33:15.219Z,15.85
2019-04-26T11:34:15.165Z,15.72
2019-04-26T11:35:15.112Z,15.79
2019-04-26T11:36:15.085Z,15.82
2019-04-26T11:37:17.868Z,15.81
2019-04-26T11:38:14.980Z,15.85
2019-04-26T11:39:14.905Z,15.70
2019-04-26T11:40:15.866Z,15.86
2019-04-26T11:41:14.789Z,15.72
2019-04-26T11:42:14.735Z,15.81
2019-04-26T11:43:15.755Z,15.75
2019-04-26T11:44:14.628Z,15.79
2019-04-26T11:45:16.026Z,15.70
2019-04-26T11:46:14.518Z,15.72
2019-04-26T11:47:14.464Z,15.78
2019-04-26T11:48:14.409Z,15.68
2019-04-26T11:49:14.356Z,15.70
2019-04-26T11:50:16.213Z,15.66
2019-04-26T11:51:14.259Z,15.79
2019-04-26T11:52:14.195Z,15.78
2019-04-26T11:53:14.140Z,15.74
2019-04-26T11:54:17.001Z,15.75
2019-04-26T11:55:14.942Z,15.79
2019-04-26T11:56:13.978Z,15.74
2019-04-26T11:57:13.927Z,15.68
2019-04-26T11:58:13.870Z,15.75
2019-04-26T11:59:13.817Z,15.72
2019-04-26T12:00:13.770Z,15.79
2019-04-26T12:01:13.708Z,15.74
2019-04-26T12:02:16.226Z,15.75
2019-04-26T12:03:13.603Z,15.81
2019-04-26T12:04:13.546Z,15.75
2019-04-26T12:05:13.493Z,15.76
2019-04-26T12:06:13.437Z,15.78
2019-04-26T12:07:13.386Z,15.76
2019-04-26T12:08:13.330Z,15.78
2019-04-26T12:09:13.283Z,15.75
2019-04-26T12:10:13.226Z,15.74
2019-04-26T12:11:18.664Z,15.76
2019-04-26T12:12:14.315Z,15.81
2019-04-26T12:13:13.100Z,15.74
2019-04-26T12:14:20.198Z,15.74
2019-04-26T12:15:12.952Z,15.76
2019-04-26T12:16:14.602Z,15.78
2019-04-26T12:17:12.851Z,15.75
2019-04-26T12:18:12.892Z,15.72
2019-04-26T12:19:14.257Z,15.75
2019-04-26T12:20:12.682Z,15.72
2019-04-26T12:21:12.643Z,15.76
2019-04-26T12:22:12.576Z,15.78
2019-04-26T12:23:13.657Z,15.79
2019-04-26T12:24:12.465Z,15.79
2019-04-26T12:25:12.415Z,15.79
2019-04-26T12:26:12.358Z,15.81
2019-04-26T12:27:12.398Z,15.76
2019-04-26T12:28:12.311Z,15.79
2019-04-26T12:29:14.787Z,15.78
2019-04-26T12:30:12.143Z,15.66
2019-04-26T12:31:14.921Z,15.67
2019-04-26T12:32:12.034Z,15.76
2019-04-26T12:33:11.979Z,15.74
2019-04-26T12:34:14.078Z,15.72
2019-04-26T12:35:11.872Z,15.78
2019-04-26T12:36:13.259Z,15.79
2019-04-26T12:37:12.650Z,15.72
2019-04-26T12:38:11.708Z,15.76
2019-04-26T12:39:11.656Z,15.76
2019-04-26T12:40:12.344Z,15.75
2019-04-26T12:41:11.717Z,15.74
2019-04-26T12:42:12.347Z,15.82
2019-04-26T12:43:11.438Z,15.78
2019-04-26T12:44:11.384Z,15.76
2019-04-26T12:45:12.260Z,15.72
2019-04-26T12:46:14.099Z,15.75
2019-04-26T12:47:11.224Z,15.75
2019-04-26T12:48:12.383Z,15.76
2019-04-26T12:49:11.114Z,15.78
2019-04-26T12:50:11.059Z,15.70
2019-04-26T12:51:11.984Z,15.68
2019-04-26T12:52:10.951Z,15.72